Flight Track Log - Related Links

Times and Time Zones

All times are in EDT time to prevent confusion due to time zone crossing. See the WJA1211 flight status page for this flight to view local times or setup timezone preferences in your user account.


Time Position Orientation Groundspeed Altitude Reporting Facility
EDT Latitude Longitude Course Direction KTS MPH feet Rate Location/Type
Mon 05:07:37 PM 40.7500 -73.8333 327° Northwest 158 182 1,900  Level New York TRACON
Mon 05:09:00 PM 40.8170 -73.9544 North  Level Estimated
Mon 05:09:37 PM 40.7833 -73.7667 North 242 278 6,300  Level New York TRACON
Mon 05:10:37 PM 40.8500 -73.8000 339° North 268 308 8,600 2,600 Climbing New York TRACON
Mon 05:11:37 PM 40.9000 -73.8833 308° West 295 339 11,500 2,750 Climbing New York TRACON
Mon 05:12:37 PM 40.9833 -73.9667 323° Northwest 337 388 14,100 2,300 Climbing New York TRACON
Mon 05:13:00 PM 41.1918 -74.1844 327° Northwest  Level FlightAware Approximate
Mon 05:13:37 PM 41.0500 -74.0500 317° Northwest 363 418 16,100  Level New York TRACON
Mon 05:15:00 PM 41.1550 -74.1467 325° Northwest 386 444 16,000 -43 Descending New York Center
Mon 05:15:58 PM 41.2506 -74.2261 328° Northwest 371 427 16,000  Level New York Center
Mon 05:16:58 PM 41.3339 -74.2967 328° Northwest 360 414 16,000 1,230 Level New York Center
Mon 05:18:00 PM 41.4128 -74.3783 322° Northwest 360 414 18,500 2,585 Climbing New York Center
Mon 05:19:01 PM 41.4617 -74.4778 303° West 354 407 21,300 2,797 Climbing New York Center
Mon 05:19:58 PM 41.5097 -74.5994 298° West 360 414 24,000 2,390 Climbing New York Center
Mon 05:20:59 PM 41.5619 -74.7217 300° West 371 427 26,000 984 Climbing New York Center
Mon 05:22:00 PM 41.6161 -74.8414 301° West 377 434 26,000  Level New York Center
Mon 05:23:00 PM 41.6703 -74.9669 300° West 382 440 26,000  Level New York Center
Mon 05:23:59 PM 41.7219 -75.0925 299° West 382 440 26,000  Level New York Center
Mon 05:24:59 PM 41.7756 -75.2156 300° West 382 440 26,000  Level New York Center
Mon 05:25:59 PM 41.8269 -75.3414 299° West 382 440 26,000  Level New York Center
Mon 05:27:00 PM 41.8783 -75.4647 299° West 382 440 26,000  Level New York Center
Mon 05:28:01 PM 41.9317 -75.5911 300° West 382 440 26,000  Level New York Center
Mon 05:28:58 PM 41.9850 -75.7150 300° West 382 440 26,000  Level New York Center
Mon 05:29:58 PM 42.0339 -75.8386 298° West 382 440 26,000  Level New York Center
Mon 05:30:59 PM 42.0850 -75.9572 300° West 377 434 26,000  Level New York Center
Mon 05:31:59 PM 42.1336 -76.0786 298° West 377 434 26,000  Level New York Center
Mon 05:32:59 PM 42.1783 -76.1994 297° West 372 428 26,000  Level New York Center
Mon 05:34:00 PM 42.2183 -76.3233 294° West 367 422 26,000  Level New York Center
Mon 05:35:03 PM 42.2639 -76.4722 293° West 359 413 26,000  Level Cleveland Center
Mon 05:36:03 PM 42.3036 -76.5961 293° West 359 413 26,000  Level Cleveland Center
Mon 05:37:03 PM 42.3481 -76.7339 294° West 376 433 26,000  Level Cleveland Center
Mon 05:38:03 PM 42.3900 -76.8692 293° West 392 451 26,000  Level Cleveland Center
Mon 05:39:03 PM 42.4342 -77.0128 293° West 398 458 26,000  Level Cleveland Center
Mon 05:40:03 PM 42.4781 -77.1511 293° West 403 464 26,000  Level Cleveland Center
Mon 05:41:03 PM 42.5217 -77.2897 293° West 408 470 26,000  Level Cleveland Center
Mon 05:42:03 PM 42.5631 -77.4286 292° West 408 470 26,000  Level Cleveland Center
Mon 05:43:03 PM 42.6017 -77.5536 293° West 408 470 26,000  Level Cleveland Center
Mon 05:44:03 PM 42.6428 -77.6928 292° West 408 470 26,000  Level Cleveland Center
Mon 05:45:03 PM 42.6881 -77.8319 294° West 408 470 26,000  Level Cleveland Center
Mon 05:46:03 PM 42.7286 -77.9631 293° West 402 463 26,000  Level Cleveland Center
Mon 05:47:03 PM 42.7669 -78.0944 292° West 391 450 26,000  Level Cleveland Center
Mon 05:48:03 PM 42.8050 -78.2203 292° West 379 436 26,000  Level Cleveland Center
Mon 05:49:03 PM 42.8431 -78.3492 292° West 368 423 26,000 -200 Level Cleveland Center
Mon 05:50:03 PM 42.8808 -78.4753 292° West 368 423 25,600 -800 Descending Cleveland Center
Mon 05:51:03 PM 42.9164 -78.5989 291° West 368 423 24,400 -1,300 Descending Cleveland Center
Mon 05:52:03 PM 42.9683 -78.7164 301° West 368 423 23,000 -1,500 Descending Cleveland Center
Mon 05:53:03 PM 43.0242 -78.8197 306° West 355 409 21,400 -1,810 Descending Cleveland Center
Mon 05:53:59 PM 43.0667 -78.9000 306° West 330 380 19,500 -1,603 Descending Toronto Center
Mon 05:54:59 PM 43.0500 -79.0167 259° West 300 345 18,300 -1,300 Descending Toronto Center
Mon 05:55:59 PM 43.0833 -79.1333 291° West 290 334 16,900 -1,400 Descending Toronto Center
Mon 05:56:59 PM 43.1500 -79.2000 324° Northwest 300 345 15,500 -1,450 Descending Toronto Center
Mon 05:57:59 PM 43.2167 -79.2667 324° Northwest 300 345 14,000 -1,500 Descending Toronto Center
Mon 05:58:59 PM 43.2833 -79.3167 331° Northwest 290 334 12,500 -1,450 Descending Toronto Center
Mon 05:59:59 PM 43.3500 -79.3500 340° North 300 345 11,100 -1,500 Descending Toronto Center
Mon 06:00:59 PM 43.4333 -79.4000 336° Northwest 300 345 9,500 -1,033 Descending Toronto Center
Mon 06:02:59 PM 43.5833 -79.4667 342° North 290 334 8,000 -633 Descending Toronto Center
Mon 06:03:59 PM 43.6000 -79.5333 289° West 240 276 7,600 -850 Descending Toronto Center
Mon 06:04:59 PM 43.5667 -79.5833 227° Southwest 200 230 6,300 -1,250 Descending Toronto Center
Mon 06:05:59 PM 43.5167 -79.6333 216° Southwest 200 230 5,100 -900 Descending Toronto Center
Mon 06:06:59 PM 43.4833 -79.7000 235° Southwest 190 219 4,500 -550 Descending Toronto Center
Mon 06:07:59 PM 43.4333 -79.7500 216° Southwest 200 230 4,000 -500 Descending Toronto Center
Mon 06:08:59 PM 43.4667 -79.8167 305° West 220 253 3,500 -500 Descending Toronto Center
Mon 06:09:59 PM 43.5167 -79.8000 33° Northeast 240 276 3,000 -250 Descending Toronto Center
Mon 06:10:00 PM 43.5415 -79.7507 33° Northeast  Level Estimated
Mon 06:10:59 PM 43.5667 -79.7167 50° Northeast 210 242 3,000  Level Toronto Center
Mon 06:11:59 PM 43.6000 -79.6833 36° Northeast 200 230 2,100 -850 Descending Toronto Center
Mon 06:12:59 PM 43.6167 -79.6333 65° Northeast 150 173 1,300 -750 Descending Toronto Center
Mon 06:13:59 PM 43.6500 -79.6167 20° North 130 150 600 13,819 Descending Toronto Center
Mon 06:15:34 PM 42.6000 -83.2500 250° West 520 598 37,000 14,090 Climbing Toronto Center
Mon 06:16:34 PM 42.6167 -83.0500 83° East 530 610 37,000  Level Toronto Center
Mon 06:17:34 PM 42.6167 -82.8667 90° East 530 610 37,000  Level Toronto Center

Login

Don't have an account? Register now (free) for customized features, flight alerts, and more!